sensor_id;sensor_type;location;lat;lon;timestamp;temperature;humidity
25906;DHT22;13713;52.552;13.204;2022-12-10T00:01:18;14.60;68.10
25906;DHT22;13713;52.552;13.204;2022-12-10T00:03:45;14.60;68.10
25906;DHT22;13713;52.552;13.204;2022-12-10T00:06:16;14.50;68.10
25906;DHT22;13713;52.552;13.204;2022-12-10T00:08:43;14.50;68.10
25906;DHT22;13713;52.552;13.204;2022-12-10T00:11:10;14.50;68.00
25906;DHT22;13713;52.552;13.204;2022-12-10T00:13:36;14.50;68.10
25906;DHT22;13713;52.552;13.204;2022-12-10T00:16:04;14.50;68.00
25906;DHT22;13713;52.552;13.204;2022-12-10T00:18:29;14.50;68.00
25906;DHT22;13713;52.552;13.204;2022-12-10T00:20:55;14.40;68.00
25906;DHT22;13713;52.552;13.204;2022-12-10T00:23:21;14.50;67.90
25906;DHT22;13713;52.552;13.204;2022-12-10T00:25:47;14.40;67.90
25906;DHT22;13713;52.552;13.204;2022-12-10T00:28:13;14.50;68.00
25906;DHT22;13713;52.552;13.204;2022-12-10T00:30:38;14.50;67.90
25906;DHT22;13713;52.552;13.204;2022-12-10T00:33:04;14.50;67.90
25906;DHT22;13713;52.552;13.204;2022-12-10T00:35:30;14.50;67.90
25906;DHT22;13713;52.552;13.204;2022-12-10T00:37:55;14.40;67.70
25906;DHT22;13713;52.552;13.204;2022-12-10T00:40:21;14.50;67.80
25906;DHT22;13713;52.552;13.204;2022-12-10T00:42:47;14.40;67.60
25906;DHT22;13713;52.552;13.204;2022-12-10T00:45:13;14.40;67.70
25906;DHT22;13713;52.552;13.204;2022-12-10T00:47:39;14.40;67.70
25906;DHT22;13713;52.552;13.204;2022-12-10T00:50:04;14.40;67.70
25906;DHT22;13713;52.552;13.204;2022-12-10T00:52:31;14.40;67.80
25906;DHT22;13713;52.552;13.204;2022-12-10T00:54:57;14.40;67.70
25906;DHT22;13713;52.552;13.204;2022-12-10T00:57:23;14.40;67.70
25906;DHT22;13713;52.552;13.204;2022-12-10T00:59:48;14.40;67.70
25906;DHT22;13713;52.552;13.204;2022-12-10T01:02:14;14.40;67.70
25906;DHT22;13713;52.552;13.204;2022-12-10T01:04:40;14.40;67.80
25906;DHT22;13713;52.552;13.204;2022-12-10T01:07:07;14.40;67.80
25906;DHT22;13713;52.552;13.204;2022-12-10T01:09:34;14.40;67.70
25906;DHT22;13713;52.552;13.204;2022-12-10T01:12:02;14.30;67.60
25906;DHT22;13713;52.552;13.204;2022-12-10T01:14:31;14.40;67.80
25906;DHT22;13713;52.552;13.204;2022-12-10T01:17:00;14.30;67.70
25906;DHT22;13713;52.552;13.204;2022-12-10T01:19:28;14.30;67.80
25906;DHT22;13713;52.552;13.204;2022-12-10T01:21:55;14.30;67.80
25906;DHT22;13713;52.552;13.204;2022-12-10T01:24:23;14.30;67.70
25906;DHT22;13713;52.552;13.204;2022-12-10T01:26:49;14.30;67.80
25906;DHT22;13713;52.552;13.204;2022-12-10T01:29:15;14.30;67.80
25906;DHT22;13713;52.552;13.204;2022-12-10T01:31:41;14.30;67.70
25906;DHT22;13713;52.552;13.204;2022-12-10T01:34:10;14.30;67.80
25906;DHT22;13713;52.552;13.204;2022-12-10T01:36:39;14.30;67.80
25906;DHT22;13713;52.552;13.204;2022-12-10T01:39:06;14.30;67.80
25906;DHT22;13713;52.552;13.204;2022-12-10T01:46:49;14.20;68.10
25906;DHT22;13713;52.552;13.204;2022-12-10T01:49:18;14.30;68.00
25906;DHT22;13713;52.552;13.204;2022-12-10T01:51:47;14.30;67.90
25906;DHT22;13713;52.552;13.204;2022-12-10T01:56:47;14.30;68.00
25906;DHT22;13713;52.552;13.204;2022-12-10T01:59:15;14.30;67.90
25906;DHT22;13713;52.552;13.204;2022-12-10T02:07:16;14.20;67.90
25906;DHT22;13713;52.552;13.204;2022-12-10T02:09:54;14.20;68.00
25906;DHT22;13713;52.552;13.204;2022-12-10T02:12:33;14.20;67.90
25906;DHT22;13713;52.552;13.204;2022-12-10T02:18:24;14.20;68.00
25906;DHT22;13713;52.552;13.204;2022-12-10T02:20:36;14.20;68.00
25906;DHT22;13713;52.552;13.204;2022-12-10T02:23:12;14.20;68.10
25906;DHT22;13713;52.552;13.204;2022-12-10T02:25:48;14.20;68.00
25906;DHT22;13713;52.552;13.204;2022-12-10T02:30:59;14.20;68.10
25906;DHT22;13713;52.552;13.204;2022-12-10T02:33:26;14.20;68.00
25906;DHT22;13713;52.552;13.204;2022-12-10T02:35:53;14.20;68.00
25906;DHT22;13713;52.552;13.204;2022-12-10T02:38:29;14.20;68.10
25906;DHT22;13713;52.552;13.204;2022-12-10T02:41:02;14.20;68.00
25906;DHT22;13713;52.552;13.204;2022-12-10T02:43:30;14.10;67.90
25906;DHT22;13713;52.552;13.204;2022-12-10T02:45:58;14.20;68.00
25906;DHT22;13713;52.552;13.204;2022-12-10T02:48:25;14.20;68.00
25906;DHT22;13713;52.552;13.204;2022-12-10T02:50:52;14.10;67.90
25906;DHT22;13713;52.552;13.204;2022-12-10T02:53:18;14.10;67.90
25906;DHT22;13713;52.552;13.204;2022-12-10T02:56:02;14.10;68.00
25906;DHT22;13713;52.552;13.204;2022-12-10T03:04:04;14.10;67.90
25906;DHT22;13713;52.552;13.204;2022-12-10T03:06:46;14.10;68.00
25906;DHT22;13713;52.552;13.204;2022-12-10T03:09:24;14.10;67.90
25906;DHT22;13713;52.552;13.204;2022-12-10T03:11:58;14.10;67.90
25906;DHT22;13713;52.552;13.204;2022-12-10T03:14:29;14.10;67.90
25906;DHT22;13713;52.552;13.204;2022-12-10T03:16:59;14.00;67.90
25906;DHT22;13713;52.552;13.204;2022-12-10T03:19:51;14.00;67.90
25906;DHT22;13713;52.552;13.204;2022-12-10T03:22:18;14.10;67.90
25906;DHT22;13713;52.552;13.204;2022-12-10T03:24:44;14.00;67.90
25906;DHT22;13713;52.552;13.204;2022-12-10T03:27:11;14.00;67.90
25906;DHT22;13713;52.552;13.204;2022-12-10T03:29:44;14.00;67.90
25906;DHT22;13713;52.552;13.204;2022-12-10T03:32:11;14.00;67.90
25906;DHT22;13713;52.552;13.204;2022-12-10T03:34:37;14.00;67.90
25906;DHT22;13713;52.552;13.204;2022-12-10T03:37:04;14.00;67.90
25906;DHT22;13713;52.552;13.204;2022-12-10T03:39:30;14.00;67.90
25906;DHT22;13713;52.552;13.204;2022-12-10T03:41:56;14.00;67.90
25906;DHT22;13713;52.552;13.204;2022-12-10T03:44:37;14.10;68.00
25906;DHT22;13713;52.552;13.204;2022-12-10T03:47:05;14.00;68.00
25906;DHT22;13713;52.552;13.204;2022-12-10T03:49:31;14.00;68.00
25906;DHT22;13713;52.552;13.204;2022-12-10T03:51:57;14.00;68.00
25906;DHT22;13713;52.552;13.204;2022-12-10T03:54:23;14.00;68.00
25906;DHT22;13713;52.552;13.204;2022-12-10T03:56:49;14.00;68.00
25906;DHT22;13713;52.552;13.204;2022-12-10T03:59:15;14.00;68.00
25906;DHT22;13713;52.552;13.204;2022-12-10T04:01:41;14.00;68.10
25906;DHT22;13713;52.552;13.204;2022-12-10T04:04:07;14.00;68.10
25906;DHT22;13713;52.552;13.204;2022-12-10T04:06:33;13.90;68.10
25906;DHT22;13713;52.552;13.204;2022-12-10T04:08:59;14.00;68.10
25906;DHT22;13713;52.552;13.204;2022-12-10T04:11:25;13.90;68.10
25906;DHT22;13713;52.552;13.204;2022-12-10T04:13:51;13.90;68.20
25906;DHT22;13713;52.552;13.204;2022-12-10T04:16:36;14.00;68.30
25906;DHT22;13713;52.552;13.204;2022-12-10T04:19:14;14.00;68.30
25906;DHT22;13713;52.552;13.204;2022-12-10T04:21:41;13.90;68.20
25906;DHT22;13713;52.552;13.204;2022-12-10T04:24:29;13.90;68.30
25906;DHT22;13713;52.552;13.204;2022-12-10T04:27:38;13.90;68.30
25906;DHT22;13713;52.552;13.204;2022-12-10T04:30:07;13.90;68.30
25906;DHT22;13713;52.552;13.204;2022-12-10T04:32:32;13.90;68.40
25906;DHT22;13713;52.552;13.204;2022-12-10T04:34:58;13.90;68.40
25906;DHT22;13713;52.552;13.204;2022-12-10T04:37:24;13.90;68.50
25906;DHT22;13713;52.552;13.204;2022-12-10T04:39:50;13.90;68.50
25906;DHT22;13713;52.552;13.204;2022-12-10T04:42:17;13.90;68.60
25906;DHT22;13713;52.552;13.204;2022-12-10T04:44:43;13.90;68.60
25906;DHT22;13713;52.552;13.204;2022-12-10T04:47:09;13.90;68.70
25906;DHT22;13713;52.552;13.204;2022-12-10T04:49:35;13.90;68.70
25906;DHT22;13713;52.552;13.204;2022-12-10T04:52:02;13.90;68.70
25906;DHT22;13713;52.552;13.204;2022-12-10T04:54:28;13.90;68.80
25906;DHT22;13713;52.552;13.204;2022-12-10T04:56:54;13.90;68.80
25906;DHT22;13713;52.552;13.204;2022-12-10T04:59:20;13.90;68.80
25906;DHT22;13713;52.552;13.204;2022-12-10T05:01:46;13.80;68.70
25906;DHT22;13713;52.552;13.204;2022-12-10T05:04:15;14.00;68.90
25906;DHT22;13713;52.552;13.204;2022-12-10T05:06:41;13.90;68.80
25906;DHT22;13713;52.552;13.204;2022-12-10T05:09:07;13.80;68.90
25906;DHT22;13713;52.552;13.204;2022-12-10T05:11:34;13.90;69.00
25906;DHT22;13713;52.552;13.204;2022-12-10T05:14:01;13.80;68.90
25906;DHT22;13713;52.552;13.204;2022-12-10T05:16:28;13.80;69.00
25906;DHT22;13713;52.552;13.204;2022-12-10T05:18:55;13.80;69.00
25906;DHT22;13713;52.552;13.204;2022-12-10T05:21:22;13.80;69.00
25906;DHT22;13713;52.552;13.204;2022-12-10T05:23:50;13.80;69.00
25906;DHT22;13713;52.552;13.204;2022-12-10T05:26:21;13.80;69.00
25906;DHT22;13713;52.552;13.204;2022-12-10T05:28:55;13.80;69.00
25906;DHT22;13713;52.552;13.204;2022-12-10T05:31:28;13.80;69.00
25906;DHT22;13713;52.552;13.204;2022-12-10T05:33:56;13.80;69.00
25906;DHT22;13713;52.552;13.204;2022-12-10T05:36:25;13.80;69.10
25906;DHT22;13713;52.552;13.204;2022-12-10T05:38:51;13.80;69.10
25906;DHT22;13713;52.552;13.204;2022-12-10T05:41:20;13.80;69.10
25906;DHT22;13713;52.552;13.204;2022-12-10T05:43:47;13.80;69.10
25906;DHT22;13713;52.552;13.204;2022-12-10T05:46:16;13.80;69.10
25906;DHT22;13713;52.552;13.204;2022-12-10T05:48:43;13.80;69.10
25906;DHT22;13713;52.552;13.204;2022-12-10T05:51:12;13.80;69.10
25906;DHT22;13713;52.552;13.204;2022-12-10T05:53:38;13.80;69.20
25906;DHT22;13713;52.552;13.204;2022-12-10T05:56:13;13.80;69.20
25906;DHT22;13713;52.552;13.204;2022-12-10T05:58:40;13.60;69.20
25906;DHT22;13713;52.552;13.204;2022-12-10T06:01:11;13.80;69.20
25906;DHT22;13713;52.552;13.204;2022-12-10T06:03:37;13.80;69.30
25906;DHT22;13713;52.552;13.204;2022-12-10T06:06:04;13.70;69.30
25906;DHT22;13713;52.552;13.204;2022-12-10T06:08:30;13.70;69.20
25906;DHT22;13713;52.552;13.204;2022-12-10T06:10:56;13.70;69.20
25906;DHT22;13713;52.552;13.204;2022-12-10T06:13:23;13.70;69.20
25906;DHT22;13713;52.552;13.204;2022-12-10T06:15:49;13.60;69.20
25906;DHT22;13713;52.552;13.204;2022-12-10T06:18:15;13.70;69.20
25906;DHT22;13713;52.552;13.204;2022-12-10T06:20:40;13.70;69.30
25906;DHT22;13713;52.552;13.204;2022-12-10T06:23:06;13.70;69.30
25906;DHT22;13713;52.552;13.204;2022-12-10T06:25:32;13.70;69.20
25906;DHT22;13713;52.552;13.204;2022-12-10T06:27:58;13.70;69.30
25906;DHT22;13713;52.552;13.204;2022-12-10T06:30:23;13.70;69.20
25906;DHT22;13713;52.552;13.204;2022-12-10T06:32:49;13.70;69.10
25906;DHT22;13713;52.552;13.204;2022-12-10T06:35:15;13.70;69.10
25906;DHT22;13713;52.552;13.204;2022-12-10T06:37:40;13.70;69.10
25906;DHT22;13713;52.552;13.204;2022-12-10T06:40:07;13.70;69.10
25906;DHT22;13713;52.552;13.204;2022-12-10T06:42:32;13.70;69.20
25906;DHT22;13713;52.552;13.204;2022-12-10T06:44:58;13.70;69.10
25906;DHT22;13713;52.552;13.204;2022-12-10T06:47:23;13.70;69.10
25906;DHT22;13713;52.552;13.204;2022-12-10T06:49:49;13.70;69.10
25906;DHT22;13713;52.552;13.204;2022-12-10T06:52:15;13.70;69.10
25906;DHT22;13713;52.552;13.204;2022-12-10T06:54:41;13.70;69.10
25906;DHT22;13713;52.552;13.204;2022-12-10T06:57:06;13.60;69.10
25906;DHT22;13713;52.552;13.204;2022-12-10T06:59:32;13.70;69.10
25906;DHT22;13713;52.552;13.204;2022-12-10T07:01:58;13.60;69.00
25906;DHT22;13713;52.552;13.204;2022-12-10T07:04:24;13.60;69.00
25906;DHT22;13713;52.552;13.204;2022-12-10T07:06:49;13.60;69.00
25906;DHT22;13713;52.552;13.204;2022-12-10T07:09:15;13.60;68.90
25906;DHT22;13713;52.552;13.204;2022-12-10T07:11:41;13.70;68.80
25906;DHT22;13713;52.552;13.204;2022-12-10T07:14:07;13.60;68.80
25906;DHT22;13713;52.552;13.204;2022-12-10T07:16:34;13.60;68.80
25906;DHT22;13713;52.552;13.204;2022-12-10T07:19:01;13.60;68.80
25906;DHT22;13713;52.552;13.204;2022-12-10T07:21:32;13.60;68.70
25906;DHT22;13713;52.552;13.204;2022-12-10T07:24:01;13.60;68.70
25906;DHT22;13713;52.552;13.204;2022-12-10T07:26:29;13.60;68.70
25906;DHT22;13713;52.552;13.204;2022-12-10T07:28:55;13.60;68.70
25906;DHT22;13713;52.552;13.204;2022-12-10T07:31:21;13.60;68.70
25906;DHT22;13713;52.552;13.204;2022-12-10T07:33:48;13.60;68.60
25906;DHT22;13713;52.552;13.204;2022-12-10T07:36:14;13.60;68.60
25906;DHT22;13713;52.552;13.204;2022-12-10T07:38:40;13.60;68.60
25906;DHT22;13713;52.552;13.204;2022-12-10T07:41:09;13.60;68.60
25906;DHT22;13713;52.552;13.204;2022-12-10T07:43:36;13.50;68.50
25906;DHT22;13713;52.552;13.204;2022-12-10T07:46:21;13.50;68.50
25906;DHT22;13713;52.552;13.204;2022-12-10T07:48:48;13.50;68.50
25906;DHT22;13713;52.552;13.204;2022-12-10T07:51:15;13.50;68.50
25906;DHT22;13713;52.552;13.204;2022-12-10T07:53:42;13.50;68.50
25906;DHT22;13713;52.552;13.204;2022-12-10T07:56:08;13.50;68.40
25906;DHT22;13713;52.552;13.204;2022-12-10T07:58:34;13.50;68.40
25906;DHT22;13713;52.552;13.204;2022-12-10T08:01:08;13.50;68.30
25906;DHT22;13713;52.552;13.204;2022-12-10T08:03:34;13.50;68.30
25906;DHT22;13713;52.552;13.204;2022-12-10T08:06:06;13.50;68.20
25906;DHT22;13713;52.552;13.204;2022-12-10T08:08:36;13.50;68.20
25906;DHT22;13713;52.552;13.204;2022-12-10T08:11:03;13.50;68.20
25906;DHT22;13713;52.552;13.204;2022-12-10T08:13:30;13.60;68.30
25906;DHT22;13713;52.552;13.204;2022-12-10T08:16:11;13.50;68.40
25906;DHT22;13713;52.552;13.204;2022-12-10T08:18:37;13.50;68.30
25906;DHT22;13713;52.552;13.204;2022-12-10T08:21:08;13.50;68.30
25906;DHT22;13713;52.552;13.204;2022-12-10T08:23:35;13.40;68.20
25906;DHT22;13713;52.552;13.204;2022-12-10T08:26:05;13.50;68.30
25906;DHT22;13713;52.552;13.204;2022-12-10T08:28:30;13.40;68.10
25906;DHT22;13713;52.552;13.204;2022-12-10T08:30:56;13.40;68.00
25906;DHT22;13713;52.552;13.204;2022-12-10T08:33:22;13.40;68.00
25906;DHT22;13713;52.552;13.204;2022-12-10T08:35:47;13.40;67.90
25906;DHT22;13713;52.552;13.204;2022-12-10T08:38:13;13.40;68.00
25906;DHT22;13713;52.552;13.204;2022-12-10T08:40:40;13.50;68.00
25906;DHT22;13713;52.552;13.204;2022-12-10T08:43:06;13.40;68.00
25906;DHT22;13713;52.552;13.204;2022-12-10T08:45:31;13.40;67.90
25906;DHT22;13713;52.552;13.204;2022-12-10T08:47:57;13.40;67.90
25906;DHT22;13713;52.552;13.204;2022-12-10T08:50:23;13.40;67.90
25906;DHT22;13713;52.552;13.204;2022-12-10T08:52:48;13.40;67.80
25906;DHT22;13713;52.552;13.204;2022-12-10T08:55:14;13.40;67.80
25906;DHT22;13713;52.552;13.204;2022-12-10T08:57:40;13.40;67.80
25906;DHT22;13713;52.552;13.204;2022-12-10T09:00:06;13.40;67.70
25906;DHT22;13713;52.552;13.204;2022-12-10T09:02:32;13.40;68.60
25906;DHT22;13713;52.552;13.204;2022-12-10T09:04:57;13.50;67.90
25906;DHT22;13713;52.552;13.204;2022-12-10T09:07:23;13.40;67.70
25906;DHT22;13713;52.552;13.204;2022-12-10T09:09:49;13.40;67.70
25906;DHT22;13713;52.552;13.204;2022-12-10T09:12:14;13.40;67.80
25906;DHT22;13713;52.552;13.204;2022-12-10T09:14:40;13.40;67.80
25906;DHT22;13713;52.552;13.204;2022-12-10T09:17:07;13.30;67.70
25906;DHT22;13713;52.552;13.204;2022-12-10T09:19:33;13.40;67.80
25906;DHT22;13713;52.552;13.204;2022-12-10T09:21:59;13.30;67.80
25906;DHT22;13713;52.552;13.204;2022-12-10T09:24:25;13.40;68.70
25906;DHT22;13713;52.552;13.204;2022-12-10T09:26:50;13.30;67.90
25906;DHT22;13713;52.552;13.204;2022-12-10T09:29:16;13.40;67.80
25906;DHT22;13713;52.552;13.204;2022-12-10T09:31:41;13.30;67.60
25906;DHT22;13713;52.552;13.204;2022-12-10T09:34:08;13.30;67.70
25906;DHT22;13713;52.552;13.204;2022-12-10T09:36:34;13.30;67.70
25906;DHT22;13713;52.552;13.204;2022-12-10T09:38:59;13.30;67.60
25906;DHT22;13713;52.552;13.204;2022-12-10T09:44:05;13.30;67.40
25906;DHT22;13713;52.552;13.204;2022-12-10T09:46:50;13.30;67.30
25906;DHT22;13713;52.552;13.204;2022-12-10T09:49:42;13.30;67.40
25906;DHT22;13713;52.552;13.204;2022-12-10T09:52:13;13.30;67.40
25906;DHT22;13713;52.552;13.204;2022-12-10T09:54:41;13.30;67.30
25906;DHT22;13713;52.552;13.204;2022-12-10T09:57:21;13.30;67.30
25906;DHT22;13713;52.552;13.204;2022-12-10T09:59:49;13.30;67.30
25906;DHT22;13713;52.552;13.204;2022-12-10T10:04:41;13.30;67.30
25906;DHT22;13713;52.552;13.204;2022-12-10T10:07:08;13.30;67.30
25906;DHT22;13713;52.552;13.204;2022-12-10T10:09:41;13.20;67.30
25906;DHT22;13713;52.552;13.204;2022-12-10T10:12:14;13.20;67.30
25906;DHT22;13713;52.552;13.204;2022-12-10T10:14:42;13.20;67.30
25906;DHT22;13713;52.552;13.204;2022-12-10T10:17:22;13.20;67.40
25906;DHT22;13713;52.552;13.204;2022-12-10T10:19:52;13.30;67.40
25906;DHT22;13713;52.552;13.204;2022-12-10T10:22:18;13.30;67.40
25906;DHT22;13713;52.552;13.204;2022-12-10T10:24:45;13.20;67.40
25906;DHT22;13713;52.552;13.204;2022-12-10T10:27:23;13.20;67.40
25906;DHT22;13713;52.552;13.204;2022-12-10T10:29:55;13.30;67.50
25906;DHT22;13713;52.552;13.204;2022-12-10T10:32:27;13.30;67.50
25906;DHT22;13713;52.552;13.204;2022-12-10T10:35:34;13.20;67.50
25906;DHT22;13713;52.552;13.204;2022-12-10T10:38:13;13.20;67.50
25906;DHT22;13713;52.552;13.204;2022-12-10T10:40:48;13.20;67.60
25906;DHT22;13713;52.552;13.204;2022-12-10T10:43:19;13.20;67.60
25906;DHT22;13713;52.552;13.204;2022-12-10T10:45:53;13.20;67.50
25906;DHT22;13713;52.552;13.204;2022-12-10T10:48:22;13.20;67.50
25906;DHT22;13713;52.552;13.204;2022-12-10T10:51:15;13.20;67.40
25906;DHT22;13713;52.552;13.204;2022-12-10T10:53:55;13.20;67.50
25906;DHT22;13713;52.552;13.204;2022-12-10T10:56:29;13.20;67.50
25906;DHT22;13713;52.552;13.204;2022-12-10T10:59:05;13.20;67.50
25906;DHT22;13713;52.552;13.204;2022-12-10T11:04:14;13.20;67.60
25906;DHT22;13713;52.552;13.204;2022-12-10T11:06:41;13.20;67.70
25906;DHT22;13713;52.552;13.204;2022-12-10T11:09:07;13.20;67.60
25906;DHT22;13713;52.552;13.204;2022-12-10T11:11:40;13.20;67.60
25906;DHT22;13713;52.552;13.204;2022-12-10T11:14:45;13.20;67.60
25906;DHT22;13713;52.552;13.204;2022-12-10T11:22:29;13.20;67.60
25906;DHT22;13713;52.552;13.204;2022-12-10T11:24:55;13.10;67.50
25906;DHT22;13713;52.552;13.204;2022-12-10T11:30:14;13.10;67.60
25906;DHT22;13713;52.552;13.204;2022-12-10T11:38:48;13.10;67.60
25906;DHT22;13713;52.552;13.204;2022-12-10T11:43:59;13.10;67.60
25906;DHT22;13713;52.552;13.204;2022-12-10T11:52:42;13.10;67.60
25906;DHT22;13713;52.552;13.204;2022-12-10T11:55:36;13.10;67.60
25906;DHT22;13713;52.552;13.204;2022-12-10T12:00:59;13.10;67.60
25906;DHT22;13713;52.552;13.204;2022-12-10T12:09:13;13.10;67.50
25906;DHT22;13713;52.552;13.204;2022-12-10T12:14:29;13.20;67.50
25906;DHT22;13713;52.552;13.204;2022-12-10T12:17:40;13.10;67.50
25906;DHT22;13713;52.552;13.204;2022-12-10T12:19:52;13.10;67.60
25906;DHT22;13713;52.552;13.204;2022-12-10T12:22:31;13.00;67.50
25906;DHT22;13713;52.552;13.204;2022-12-10T12:25:22;13.00;67.40
25906;DHT22;13713;52.552;13.204;2022-12-10T12:27:51;13.10;67.60
25906;DHT22;13713;52.552;13.204;2022-12-10T12:30:19;13.10;67.60
25906;DHT22;13713;52.552;13.204;2022-12-10T12:33:02;13.00;68.30
25906;DHT22;13713;52.552;13.204;2022-12-10T12:35:47;13.00;67.60
25906;DHT22;13713;52.552;13.204;2022-12-10T12:43:40;13.10;67.70
25906;DHT22;13713;52.552;13.204;2022-12-10T12:46:14;13.10;67.70
25906;DHT22;13713;52.552;13.204;2022-12-10T12:49:05;13.00;67.70
25906;DHT22;13713;52.552;13.204;2022-12-10T12:51:42;13.10;67.70
25906;DHT22;13713;52.552;13.204;2022-12-10T12:54:11;13.10;67.70
25906;DHT22;13713;52.552;13.204;2022-12-10T12:57:18;13.00;67.70
25906;DHT22;13713;52.552;13.204;2022-12-10T13:00:03;13.00;67.80
25906;DHT22;13713;52.552;13.204;2022-12-10T13:05:29;13.00;67.80
25906;DHT22;13713;52.552;13.204;2022-12-10T13:08:42;13.00;67.90
25906;DHT22;13713;52.552;13.204;2022-12-10T13:27:53;13.00;67.90
25906;DHT22;13713;52.552;13.204;2022-12-10T13:29:58;13.00;67.80
25906;DHT22;13713;52.552;13.204;2022-12-10T13:32:44;12.90;67.60
25906;DHT22;13713;52.552;13.204;2022-12-10T13:42:59;13.00;67.50
25906;DHT22;13713;52.552;13.204;2022-12-10T13:46:30;12.90;67.30
25906;DHT22;13713;52.552;13.204;2022-12-10T13:49:04;12.90;67.20
25906;DHT22;13713;52.552;13.204;2022-12-10T14:07:55;12.90;66.90
25906;DHT22;13713;52.552;13.204;2022-12-10T14:10:26;12.90;66.80
25906;DHT22;13713;52.552;13.204;2022-12-10T14:12:53;12.90;66.80
25906;DHT22;13713;52.552;13.204;2022-12-10T14:15:25;12.90;66.80
25906;DHT22;13713;52.552;13.204;2022-12-10T14:17:58;12.90;66.90
25906;DHT22;13713;52.552;13.204;2022-12-10T14:20:25;12.90;67.00
25906;DHT22;13713;52.552;13.204;2022-12-10T14:22:53;12.90;67.00
25906;DHT22;13713;52.552;13.204;2022-12-10T14:25:44;12.90;67.00
25906;DHT22;13713;52.552;13.204;2022-12-10T14:28:14;13.00;67.10
25906;DHT22;13713;52.552;13.204;2022-12-10T14:30:49;12.90;67.00
25906;DHT22;13713;52.552;13.204;2022-12-10T14:33:18;12.80;66.90
25906;DHT22;13713;52.552;13.204;2022-12-10T14:35:51;12.80;66.90
25906;DHT22;13713;52.552;13.204;2022-12-10T14:38:25;12.80;67.00
25906;DHT22;13713;52.552;13.204;2022-12-10T14:40:53;12.80;67.00
25906;DHT22;13713;52.552;13.204;2022-12-10T14:43:32;12.80;67.00
25906;DHT22;13713;52.552;13.204;2022-12-10T14:46:03;12.80;67.00
25906;DHT22;13713;52.552;13.204;2022-12-10T14:48:29;12.80;67.10
25906;DHT22;13713;52.552;13.204;2022-12-10T14:51:03;12.80;67.10
25906;DHT22;13713;52.552;13.204;2022-12-10T14:53:31;12.80;67.10
25906;DHT22;13713;52.552;13.204;2022-12-10T14:56:01;12.90;67.20
25906;DHT22;13713;52.552;13.204;2022-12-10T14:59:08;12.80;67.10
25906;DHT22;13713;52.552;13.204;2022-12-10T15:01:37;12.80;67.10
25906;DHT22;13713;52.552;13.204;2022-12-10T15:04:05;12.80;67.20
25906;DHT22;13713;52.552;13.204;2022-12-10T15:06:36;12.70;67.20
25906;DHT22;13713;52.552;13.204;2022-12-10T15:09:03;12.80;67.20
25906;DHT22;13713;52.552;13.204;2022-12-10T15:11:29;12.80;67.30
25906;DHT22;13713;52.552;13.204;2022-12-10T15:14:00;12.80;67.30
25906;DHT22;13713;52.552;13.204;2022-12-10T15:16:42;12.80;67.40
25906;DHT22;13713;52.552;13.204;2022-12-10T15:21:42;12.80;67.50
25906;DHT22;13713;52.552;13.204;2022-12-10T15:24:35;12.80;67.50
25906;DHT22;13713;52.552;13.204;2022-12-10T15:27:01;12.80;67.50
25906;DHT22;13713;52.552;13.204;2022-12-10T15:29:29;12.90;67.60
25906;DHT22;13713;52.552;13.204;2022-12-10T15:31:58;12.80;67.60
25906;DHT22;13713;52.552;13.204;2022-12-10T15:34:28;12.80;67.60
25906;DHT22;13713;52.552;13.204;2022-12-10T15:36:56;12.80;67.60
25906;DHT22;13713;52.552;13.204;2022-12-10T15:39:33;12.80;67.70
25906;DHT22;13713;52.552;13.204;2022-12-10T15:42:05;12.80;67.60
25906;DHT22;13713;52.552;13.204;2022-12-10T15:44:44;12.80;67.70
25906;DHT22;13713;52.552;13.204;2022-12-10T15:47:23;12.80;67.80
25906;DHT22;13713;52.552;13.204;2022-12-10T15:49:54;12.80;67.80
25906;DHT22;13713;52.552;13.204;2022-12-10T15:52:25;12.80;67.80
25906;DHT22;13713;52.552;13.204;2022-12-10T15:54:52;12.80;67.80
25906;DHT22;13713;52.552;13.204;2022-12-10T15:57:25;12.80;67.90
25906;DHT22;13713;52.552;13.204;2022-12-10T15:59:53;12.70;67.80
25906;DHT22;13713;52.552;13.204;2022-12-10T16:02:48;12.80;67.90
25906;DHT22;13713;52.552;13.204;2022-12-10T16:05:24;12.80;67.90
25906;DHT22;13713;52.552;13.204;2022-12-10T16:07:52;12.80;67.90
25906;DHT22;13713;52.552;13.204;2022-12-10T16:10:21;12.70;67.90
25906;DHT22;13713;52.552;13.204;2022-12-10T16:12:51;12.70;68.70
25906;DHT22;13713;52.552;13.204;2022-12-10T16:15:21;12.80;68.00
25906;DHT22;13713;52.552;13.204;2022-12-10T16:17:50;12.70;68.00
25906;DHT22;13713;52.552;13.204;2022-12-10T16:20:23;12.70;68.00
25906;DHT22;13713;52.552;13.204;2022-12-10T16:22:52;12.70;68.00
25906;DHT22;13713;52.552;13.204;2022-12-10T16:25:18;12.70;68.00
25906;DHT22;13713;52.552;13.204;2022-12-10T16:27:44;12.70;68.00
25906;DHT22;13713;52.552;13.204;2022-12-10T16:30:16;12.70;68.00
25906;DHT22;13713;52.552;13.204;2022-12-10T16:32:42;12.70;68.00
25906;DHT22;13713;52.552;13.204;2022-12-10T16:35:08;12.70;68.00
25906;DHT22;13713;52.552;13.204;2022-12-10T16:37:34;12.70;68.10
25906;DHT22;13713;52.552;13.204;2022-12-10T16:40:00;12.70;68.10
25906;DHT22;13713;52.552;13.204;2022-12-10T16:42:26;12.70;68.10
25906;DHT22;13713;52.552;13.204;2022-12-10T16:44:52;12.70;68.10
25906;DHT22;13713;52.552;13.204;2022-12-10T16:47:17;12.70;68.10
25906;DHT22;13713;52.552;13.204;2022-12-10T16:49:43;12.70;68.20
25906;DHT22;13713;52.552;13.204;2022-12-10T16:52:13;12.70;68.10
25906;DHT22;13713;52.552;13.204;2022-12-10T16:54:39;12.70;68.10
25906;DHT22;13713;52.552;13.204;2022-12-10T16:57:11;12.70;68.10
25906;DHT22;13713;52.552;13.204;2022-12-10T16:59:37;12.60;68.10
25906;DHT22;13713;52.552;13.204;2022-12-10T17:02:02;12.70;68.10
25906;DHT22;13713;52.552;13.204;2022-12-10T17:04:31;12.60;68.10
25906;DHT22;13713;52.552;13.204;2022-12-10T17:06:56;12.70;68.30
25906;DHT22;13713;52.552;13.204;2022-12-10T17:09:22;12.70;68.20
25906;DHT22;13713;52.552;13.204;2022-12-10T17:11:47;12.70;68.20
25906;DHT22;13713;52.552;13.204;2022-12-10T17:16:46;12.70;68.30
25906;DHT22;13713;52.552;13.204;2022-12-10T17:19:12;12.70;68.20
25906;DHT22;13713;52.552;13.204;2022-12-10T17:21:38;12.60;68.20
25906;DHT22;13713;52.552;13.204;2022-12-10T17:24:04;12.60;68.10
25906;DHT22;13713;52.552;13.204;2022-12-10T17:26:31;12.60;68.20
25906;DHT22;13713;52.552;13.204;2022-12-10T17:31:37;12.60;68.20
25906;DHT22;13713;52.552;13.204;2022-12-10T17:34:05;12.60;68.20
25906;DHT22;13713;52.552;13.204;2022-12-10T17:36:32;12.60;68.20